sensor_id;sensor_type;location;lat;lon;timestamp;P1;durP1;ratioP1;P2;durP2;ratioP2
80249;SDS011;69561;37.974;23.708;2023-08-07T00:00:23;3.13;;;0.70;;
80249;SDS011;69561;37.974;23.708;2023-08-07T00:02:49;2.35;;;0.85;;
80249;SDS011;69561;37.974;23.708;2023-08-07T00:05:15;2.55;;;0.70;;
80249;SDS011;69561;37.974;23.708;2023-08-07T00:07:44;2.92;;;0.68;;
80249;SDS011;69561;37.974;23.708;2023-08-07T00:10:09;3.25;;;1.02;;
80249;SDS011;69561;37.974;23.708;2023-08-07T00:12:35;2.17;;;0.80;;
80249;SDS011;69561;37.974;23.708;2023-08-07T00:15:02;3.47;;;1.00;;
80249;SDS011;69561;37.974;23.708;2023-08-07T00:17:28;3.00;;;0.90;;
80249;SDS011;69561;37.974;23.708;2023-08-07T00:20:12;2.85;;;0.68;;
80249;SDS011;69561;37.974;23.708;2023-08-07T00:22:38;2.40;;;0.80;;
80249;SDS011;69561;37.974;23.708;2023-08-07T00:25:04;3.78;;;0.90;;
80249;SDS011;69561;37.974;23.708;2023-08-07T00:27:30;1.35;;;0.73;;
80249;SDS011;69561;37.974;23.708;2023-08-07T00:29:56;3.05;;;0.80;;
80249;SDS011;69561;37.974;23.708;2023-08-07T00:32:21;1.15;;;0.60;;
80249;SDS011;69561;37.974;23.708;2023-08-07T00:34:47;2.40;;;0.80;;
80249;SDS011;69561;37.974;23.708;2023-08-07T00:37:13;1.48;;;0.70;;
80249;SDS011;69561;37.974;23.708;2023-08-07T00:39:38;2.13;;;0.63;;
80249;SDS011;69561;37.974;23.708;2023-08-07T00:42:04;3.80;;;0.88;;
80249;SDS011;69561;37.974;23.708;2023-08-07T00:44:30;2.35;;;0.88;;
80249;SDS011;69561;37.974;23.708;2023-08-07T00:46:56;3.78;;;0.73;;
80249;SDS011;69561;37.974;23.708;2023-08-07T00:49:22;2.05;;;0.70;;
80249;SDS011;69561;37.974;23.708;2023-08-07T00:51:47;2.13;;;0.65;;
80249;SDS011;69561;37.974;23.708;2023-08-07T00:54:14;5.20;;;0.90;;
80249;SDS011;69561;37.974;23.708;2023-08-07T00:56:43;2.40;;;0.77;;
80249;SDS011;69561;37.974;23.708;2023-08-07T00:59:09;3.25;;;1.13;;
80249;SDS011;69561;37.974;23.708;2023-08-07T01:01:35;2.60;;;0.73;;
80249;SDS011;69561;37.974;23.708;2023-08-07T01:04:01;3.85;;;0.90;;
80249;SDS011;69561;37.974;23.708;2023-08-07T01:06:27;2.55;;;0.90;;
80249;SDS011;69561;37.974;23.708;2023-08-07T01:08:53;4.80;;;1.10;;
80249;SDS011;69561;37.974;23.708;2023-08-07T01:11:24;4.32;;;0.93;;
80249;SDS011;69561;37.974;23.708;2023-08-07T01:14:08;5.65;;;1.02;;
80249;SDS011;69561;37.974;23.708;2023-08-07T01:17:43;3.05;;;0.80;;
80249;SDS011;69561;37.974;23.708;2023-08-07T01:19:42;4.32;;;1.20;;
80249;SDS011;69561;37.974;23.708;2023-08-07T01:22:14;4.22;;;0.80;;
80249;SDS011;69561;37.974;23.708;2023-08-07T01:24:45;2.53;;;1.00;;
80249;SDS011;69561;37.974;23.708;2023-08-07T01:35:12;4.00;;;0.82;;
80249;SDS011;69561;37.974;23.708;2023-08-07T01:37:41;7.30;;;0.82;;
80249;SDS011;69561;37.974;23.708;2023-08-07T01:40:08;2.80;;;0.90;;
80249;SDS011;69561;37.974;23.708;2023-08-07T01:42:36;4.38;;;0.90;;
80249;SDS011;69561;37.974;23.708;2023-08-07T01:45:02;1.88;;;0.90;;
80249;SDS011;69561;37.974;23.708;2023-08-07T01:47:29;4.55;;;1.23;;
80249;SDS011;69561;37.974;23.708;2023-08-07T01:49:55;4.22;;;1.17;;
80249;SDS011;69561;37.974;23.708;2023-08-07T01:52:21;3.90;;;0.98;;
80249;SDS011;69561;37.974;23.708;2023-08-07T01:54:47;2.40;;;0.88;;
80249;SDS011;69561;37.974;23.708;2023-08-07T01:57:13;2.33;;;0.80;;
80249;SDS011;69561;37.974;23.708;2023-08-07T01:59:39;2.45;;;0.88;;
80249;SDS011;69561;37.974;23.708;2023-08-07T02:02:04;6.13;;;1.10;;
80249;SDS011;69561;37.974;23.708;2023-08-07T02:04:30;2.55;;;1.00;;
80249;SDS011;69561;37.974;23.708;2023-08-07T02:06:56;3.22;;;1.15;;
80249;SDS011;69561;37.974;23.708;2023-08-07T02:09:22;3.33;;;1.00;;
80249;SDS011;69561;37.974;23.708;2023-08-07T02:11:48;2.88;;;1.00;;
80249;SDS011;69561;37.974;23.708;2023-08-07T02:14:14;2.38;;;0.82;;
80249;SDS011;69561;37.974;23.708;2023-08-07T02:16:39;3.55;;;1.15;;
80249;SDS011;69561;37.974;23.708;2023-08-07T02:19:05;3.00;;;0.98;;
80249;SDS011;69561;37.974;23.708;2023-08-07T02:21:31;3.75;;;1.10;;
80249;SDS011;69561;37.974;23.708;2023-08-07T02:23:57;3.58;;;1.10;;
80249;SDS011;69561;37.974;23.708;2023-08-07T02:26:23;4.20;;;0.98;;
80249;SDS011;69561;37.974;23.708;2023-08-07T02:28:48;5.80;;;1.08;;
80249;SDS011;69561;37.974;23.708;2023-08-07T02:31:14;3.60;;;1.00;;
80249;SDS011;69561;37.974;23.708;2023-08-07T02:33:40;2.92;;;0.95;;
80249;SDS011;69561;37.974;23.708;2023-08-07T02:36:06;8.35;;;1.25;;
80249;SDS011;69561;37.974;23.708;2023-08-07T02:38:32;2.70;;;0.90;;
80249;SDS011;69561;37.974;23.708;2023-08-07T02:40:58;6.03;;;1.35;;
80249;SDS011;69561;37.974;23.708;2023-08-07T02:43:23;6.97;;;1.33;;
80249;SDS011;69561;37.974;23.708;2023-08-07T02:45:49;4.82;;;1.17;;
80249;SDS011;69561;37.974;23.708;2023-08-07T02:48:15;5.72;;;1.45;;
80249;SDS011;69561;37.974;23.708;2023-08-07T02:50:42;3.55;;;1.05;;
80249;SDS011;69561;37.974;23.708;2023-08-07T02:53:08;3.17;;;0.90;;
80249;SDS011;69561;37.974;23.708;2023-08-07T02:55:34;5.55;;;1.35;;
80249;SDS011;69561;37.974;23.708;2023-08-07T02:58:00;4.88;;;1.10;;
80249;SDS011;69561;37.974;23.708;2023-08-07T03:00:26;3.28;;;0.77;;
80249;SDS011;69561;37.974;23.708;2023-08-07T03:02:51;4.32;;;1.00;;
80249;SDS011;69561;37.974;23.708;2023-08-07T03:05:17;5.45;;;0.93;;
80249;SDS011;69561;37.974;23.708;2023-08-07T03:07:43;3.38;;;1.02;;
80249;SDS011;69561;37.974;23.708;2023-08-07T03:10:09;4.90;;;1.00;;
80249;SDS011;69561;37.974;23.708;2023-08-07T03:12:37;3.50;;;0.98;;
80249;SDS011;69561;37.974;23.708;2023-08-07T03:15:04;3.72;;;1.10;;
80249;SDS011;69561;37.974;23.708;2023-08-07T03:17:30;4.95;;;0.93;;
80249;SDS011;69561;37.974;23.708;2023-08-07T03:19:56;2.85;;;0.90;;
80249;SDS011;69561;37.974;23.708;2023-08-07T03:22:22;4.03;;;1.08;;
80249;SDS011;69561;37.974;23.708;2023-08-07T03:24:48;3.58;;;1.10;;
80249;SDS011;69561;37.974;23.708;2023-08-07T03:27:14;4.47;;;1.10;;
80249;SDS011;69561;37.974;23.708;2023-08-07T03:29:39;5.47;;;1.50;;
80249;SDS011;69561;37.974;23.708;2023-08-07T03:32:05;4.90;;;1.08;;
80249;SDS011;69561;37.974;23.708;2023-08-07T03:34:31;4.50;;;0.93;;
80249;SDS011;69561;37.974;23.708;2023-08-07T03:36:57;2.95;;;1.05;;
80249;SDS011;69561;37.974;23.708;2023-08-07T03:39:24;3.55;;;1.00;;
80249;SDS011;69561;37.974;23.708;2023-08-07T03:41:50;2.20;;;1.00;;
80249;SDS011;69561;37.974;23.708;2023-08-07T03:44:16;4.30;;;0.95;;
80249;SDS011;69561;37.974;23.708;2023-08-07T03:46:42;3.15;;;0.90;;
80249;SDS011;69561;37.974;23.708;2023-08-07T03:49:07;2.78;;;1.00;;
80249;SDS011;69561;37.974;23.708;2023-08-07T03:51:33;5.18;;;1.20;;
80249;SDS011;69561;37.974;23.708;2023-08-07T03:53:59;2.35;;;0.80;;
80249;SDS011;69561;37.974;23.708;2023-08-07T03:56:24;3.30;;;1.00;;
80249;SDS011;69561;37.974;23.708;2023-08-07T03:58:50;2.83;;;1.00;;
80249;SDS011;69561;37.974;23.708;2023-08-07T04:01:16;1.90;;;0.82;;
80249;SDS011;69561;37.974;23.708;2023-08-07T04:03:42;2.67;;;0.77;;
80249;SDS011;69561;37.974;23.708;2023-08-07T04:06:07;2.25;;;0.98;;
80249;SDS011;69561;37.974;23.708;2023-08-07T04:08:35;8.52;;;1.25;;
80249;SDS011;69561;37.974;23.708;2023-08-07T04:11:02;36.45;;;2.63;;
80249;SDS011;69561;37.974;23.708;2023-08-07T04:13:28;25.42;;;1.88;;
80249;SDS011;69561;37.974;23.708;2023-08-07T04:15:55;16.70;;;1.70;;
80249;SDS011;69561;37.974;23.708;2023-08-07T04:18:20;27.45;;;1.73;;
80249;SDS011;69561;37.974;23.708;2023-08-07T04:20:50;26.65;;;2.20;;
80249;SDS011;69561;37.974;23.708;2023-08-07T04:23:19;17.02;;;2.13;;
80249;SDS011;69561;37.974;23.708;2023-08-07T04:25:45;13.85;;;1.60;;
80249;SDS011;69561;37.974;23.708;2023-08-07T04:28:14;15.18;;;1.88;;
80249;SDS011;69561;37.974;23.708;2023-08-07T04:30:40;14.35;;;1.85;;
80249;SDS011;69561;37.974;23.708;2023-08-07T04:33:06;12.05;;;2.03;;
80249;SDS011;69561;37.974;23.708;2023-08-07T04:35:32;10.32;;;2.20;;
80249;SDS011;69561;37.974;23.708;2023-08-07T04:37:58;18.65;;;3.15;;
80249;SDS011;69561;37.974;23.708;2023-08-07T04:40:24;17.73;;;2.80;;
80249;SDS011;69561;37.974;23.708;2023-08-07T04:42:50;13.45;;;2.60;;
80249;SDS011;69561;37.974;23.708;2023-08-07T04:45:16;10.10;;;2.55;;
80249;SDS011;69561;37.974;23.708;2023-08-07T04:47:41;10.00;;;2.38;;
80249;SDS011;69561;37.974;23.708;2023-08-07T04:50:07;14.10;;;2.63;;
80249;SDS011;69561;37.974;23.708;2023-08-07T04:52:34;16.33;;;2.78;;
80249;SDS011;69561;37.974;23.708;2023-08-07T04:55:00;11.93;;;2.80;;
80249;SDS011;69561;37.974;23.708;2023-08-07T04:57:25;10.80;;;2.97;;
80249;SDS011;69561;37.974;23.708;2023-08-07T04:59:51;9.65;;;3.10;;
80249;SDS011;69561;37.974;23.708;2023-08-07T05:02:18;13.15;;;2.78;;
80249;SDS011;69561;37.974;23.708;2023-08-07T05:04:44;8.88;;;2.70;;
80249;SDS011;69561;37.974;23.708;2023-08-07T05:07:09;13.68;;;2.83;;
80249;SDS011;69561;37.974;23.708;2023-08-07T05:09:35;15.60;;;3.03;;
80249;SDS011;69561;37.974;23.708;2023-08-07T05:12:01;13.45;;;2.80;;
80249;SDS011;69561;37.974;23.708;2023-08-07T05:14:28;8.13;;;2.67;;
80249;SDS011;69561;37.974;23.708;2023-08-07T05:16:54;7.53;;;2.90;;
80249;SDS011;69561;37.974;23.708;2023-08-07T05:19:20;13.35;;;3.30;;
80249;SDS011;69561;37.974;23.708;2023-08-07T05:21:46;7.72;;;2.80;;
80249;SDS011;69561;37.974;23.708;2023-08-07T05:24:15;4.10;;;2.00;;
80249;SDS011;69561;37.974;23.708;2023-08-07T05:26:41;4.35;;;1.70;;
80249;SDS011;69561;37.974;23.708;2023-08-07T05:29:06;4.95;;;1.52;;
80249;SDS011;69561;37.974;23.708;2023-08-07T05:31:33;3.10;;;1.20;;
80249;SDS011;69561;37.974;23.708;2023-08-07T05:33:59;2.33;;;0.98;;
80249;SDS011;69561;37.974;23.708;2023-08-07T05:36:24;3.08;;;1.20;;
80249;SDS011;69561;37.974;23.708;2023-08-07T05:38:50;1.63;;;0.82;;
80249;SDS011;69561;37.974;23.708;2023-08-07T05:41:16;1.65;;;1.08;;
80249;SDS011;69561;37.974;23.708;2023-08-07T05:43:41;2.92;;;0.70;;
80249;SDS011;69561;37.974;23.708;2023-08-07T05:46:07;2.38;;;0.70;;
80249;SDS011;69561;37.974;23.708;2023-08-07T05:48:33;3.90;;;0.70;;
80249;SDS011;69561;37.974;23.708;2023-08-07T05:50:59;1.50;;;0.55;;
80249;SDS011;69561;37.974;23.708;2023-08-07T05:53:25;1.33;;;0.60;;
80249;SDS011;69561;37.974;23.708;2023-08-07T05:55:50;0.98;;;0.47;;
80249;SDS011;69561;37.974;23.708;2023-08-07T05:58:16;0.80;;;0.40;;
80249;SDS011;69561;37.974;23.708;2023-08-07T06:00:42;3.47;;;0.40;;
80249;SDS011;69561;37.974;23.708;2023-08-07T06:03:07;2.08;;;0.50;;
80249;SDS011;69561;37.974;23.708;2023-08-07T06:05:33;2.10;;;0.75;;
80249;SDS011;69561;37.974;23.708;2023-08-07T06:08:00;7.60;;;0.63;;
80249;SDS011;69561;37.974;23.708;2023-08-07T06:10:26;7.85;;;0.77;;
80249;SDS011;69561;37.974;23.708;2023-08-07T06:12:52;2.20;;;0.57;;
80249;SDS011;69561;37.974;23.708;2023-08-07T06:15:17;6.43;;;0.70;;
80249;SDS011;69561;37.974;23.708;2023-08-07T06:17:44;2.08;;;0.50;;
80249;SDS011;69561;37.974;23.708;2023-08-07T06:20:10;0.90;;;0.50;;
80249;SDS011;69561;37.974;23.708;2023-08-07T06:22:37;2.80;;;0.60;;
80249;SDS011;69561;37.974;23.708;2023-08-07T06:25:03;2.33;;;0.60;;
80249;SDS011;69561;37.974;23.708;2023-08-07T06:27:30;4.25;;;0.90;;
80249;SDS011;69561;37.974;23.708;2023-08-07T06:29:56;3.15;;;1.00;;
80249;SDS011;69561;37.974;23.708;2023-08-07T06:32:22;4.47;;;0.77;;
80249;SDS011;69561;37.974;23.708;2023-08-07T06:34:49;1.85;;;0.60;;
80249;SDS011;69561;37.974;23.708;2023-08-07T06:37:15;2.53;;;0.70;;
80249;SDS011;69561;37.974;23.708;2023-08-07T06:39:41;6.47;;;0.85;;
80249;SDS011;69561;37.974;23.708;2023-08-07T06:42:06;1.45;;;0.52;;
80249;SDS011;69561;37.974;23.708;2023-08-07T06:44:32;2.03;;;0.75;;
80249;SDS011;69561;37.974;23.708;2023-08-07T06:46:58;6.85;;;0.60;;
80249;SDS011;69561;37.974;23.708;2023-08-07T06:49:24;1.95;;;0.52;;
80249;SDS011;69561;37.974;23.708;2023-08-07T06:51:50;1.80;;;0.55;;
80249;SDS011;69561;37.974;23.708;2023-08-07T06:54:16;1.73;;;0.47;;
80249;SDS011;69561;37.974;23.708;2023-08-07T06:56:42;1.50;;;0.40;;
80249;SDS011;69561;37.974;23.708;2023-08-07T06:59:09;0.70;;;0.60;;
80249;SDS011;69561;37.974;23.708;2023-08-07T07:01:35;1.33;;;0.47;;
80249;SDS011;69561;37.974;23.708;2023-08-07T07:04:01;0.65;;;0.40;;
80249;SDS011;69561;37.974;23.708;2023-08-07T07:06:27;0.75;;;0.30;;
80249;SDS011;69561;37.974;23.708;2023-08-07T07:08:52;0.80;;;0.50;;
80249;SDS011;69561;37.974;23.708;2023-08-07T07:11:24;4.15;;;1.80;;
80249;SDS011;69561;37.974;23.708;2023-08-07T07:13:50;2.60;;;1.15;;
80249;SDS011;69561;37.974;23.708;2023-08-07T07:16:19;4.45;;;1.23;;
80249;SDS011;69561;37.974;23.708;2023-08-07T07:18:47;2.45;;;0.70;;
80249;SDS011;69561;37.974;23.708;2023-08-07T07:21:13;2.00;;;0.65;;
80249;SDS011;69561;37.974;23.708;2023-08-07T07:23:39;2.45;;;0.80;;
80249;SDS011;69561;37.974;23.708;2023-08-07T07:26:04;0.80;;;0.63;;
80249;SDS011;69561;37.974;23.708;2023-08-07T07:28:30;5.32;;;0.60;;
80249;SDS011;69561;37.974;23.708;2023-08-07T07:30:56;3.05;;;0.50;;
80249;SDS011;69561;37.974;23.708;2023-08-07T07:33:21;5.38;;;0.60;;
80249;SDS011;69561;37.974;23.708;2023-08-07T07:35:47;3.60;;;0.55;;
80249;SDS011;69561;37.974;23.708;2023-08-07T07:38:13;1.73;;;0.50;;
80249;SDS011;69561;37.974;23.708;2023-08-07T07:40:40;1.23;;;1.10;;
80249;SDS011;69561;37.974;23.708;2023-08-07T07:43:06;2.40;;;1.17;;
80249;SDS011;69561;37.974;23.708;2023-08-07T07:45:32;1.63;;;1.00;;
80249;SDS011;69561;37.974;23.708;2023-08-07T07:48:00;0.77;;;0.60;;
80249;SDS011;69561;37.974;23.708;2023-08-07T07:50:27;0.88;;;0.50;;
80249;SDS011;69561;37.974;23.708;2023-08-07T07:52:52;1.00;;;0.50;;
80249;SDS011;69561;37.974;23.708;2023-08-07T07:55:18;1.67;;;0.70;;
80249;SDS011;69561;37.974;23.708;2023-08-07T07:57:44;2.53;;;0.63;;
80249;SDS011;69561;37.974;23.708;2023-08-07T08:00:10;0.82;;;0.63;;
80249;SDS011;69561;37.974;23.708;2023-08-07T08:02:38;5.65;;;2.83;;
80249;SDS011;69561;37.974;23.708;2023-08-07T08:05:08;4.50;;;1.20;;
80249;SDS011;69561;37.974;23.708;2023-08-07T08:07:35;5.43;;;0.88;;
80249;SDS011;69561;37.974;23.708;2023-08-07T08:10:02;1.92;;;0.82;;
80249;SDS011;69561;37.974;23.708;2023-08-07T08:12:29;1.25;;;0.85;;
80249;SDS011;69561;37.974;23.708;2023-08-07T08:14:55;3.13;;;1.23;;
80249;SDS011;69561;37.974;23.708;2023-08-07T08:17:22;2.50;;;1.80;;
80249;SDS011;69561;37.974;23.708;2023-08-07T08:19:48;6.45;;;1.30;;
80249;SDS011;69561;37.974;23.708;2023-08-07T08:22:14;6.15;;;2.30;;
80249;SDS011;69561;37.974;23.708;2023-08-07T08:24:40;21.48;;;15.52;;
80249;SDS011;69561;37.974;23.708;2023-08-07T08:27:05;17.15;;;13.65;;
80249;SDS011;69561;37.974;23.708;2023-08-07T08:29:31;11.38;;;8.93;;
80249;SDS011;69561;37.974;23.708;2023-08-07T08:31:57;16.83;;;9.40;;
80249;SDS011;69561;37.974;23.708;2023-08-07T08:34:22;17.55;;;11.10;;
80249;SDS011;69561;37.974;23.708;2023-08-07T08:36:48;13.85;;;5.70;;
80249;SDS011;69561;37.974;23.708;2023-08-07T08:39:14;7.90;;;5.75;;
80249;SDS011;69561;37.974;23.708;2023-08-07T08:41:40;3.92;;;2.83;;
80249;SDS011;69561;37.974;23.708;2023-08-07T08:44:10;6.22;;;1.90;;
80249;SDS011;69561;37.974;23.708;2023-08-07T08:46:38;5.80;;;1.40;;
80249;SDS011;69561;37.974;23.708;2023-08-07T08:49:07;1.48;;;1.20;;
80249;SDS011;69561;37.974;23.708;2023-08-07T08:51:35;1.98;;;1.13;;
80249;SDS011;69561;37.974;23.708;2023-08-07T08:54:01;3.38;;;0.90;;
80249;SDS011;69561;37.974;23.708;2023-08-07T08:56:28;1.52;;;0.80;;
80249;SDS011;69561;37.974;23.708;2023-08-07T08:58:55;3.13;;;0.80;;
80249;SDS011;69561;37.974;23.708;2023-08-07T09:01:21;1.75;;;0.70;;
80249;SDS011;69561;37.974;23.708;2023-08-07T09:03:49;2.13;;;1.02;;
80249;SDS011;69561;37.974;23.708;2023-08-07T09:06:17;2.08;;;0.80;;
80249;SDS011;69561;37.974;23.708;2023-08-07T09:08:43;2.92;;;1.00;;
80249;SDS011;69561;37.974;23.708;2023-08-07T09:11:12;7.03;;;1.20;;
80249;SDS011;69561;37.974;23.708;2023-08-07T09:13:39;1.60;;;0.90;;
80249;SDS011;69561;37.974;23.708;2023-08-07T09:16:07;4.05;;;0.88;;
80249;SDS011;69561;37.974;23.708;2023-08-07T09:18:34;2.75;;;0.60;;
80249;SDS011;69561;37.974;23.708;2023-08-07T09:21:00;1.85;;;0.70;;
80249;SDS011;69561;37.974;23.708;2023-08-07T09:23:26;0.75;;;0.50;;
80249;SDS011;69561;37.974;23.708;2023-08-07T09:25:59;1.33;;;0.60;;
80249;SDS011;69561;37.974;23.708;2023-08-07T09:28:29;2.85;;;0.65;;
80249;SDS011;69561;37.974;23.708;2023-08-07T09:30:55;1.98;;;0.80;;
80249;SDS011;69561;37.974;23.708;2023-08-07T09:33:28;3.70;;;0.70;;
80249;SDS011;69561;37.974;23.708;2023-08-07T09:35:58;1.55;;;0.70;;
80249;SDS011;69561;37.974;23.708;2023-08-07T09:38:29;2.67;;;0.70;;
80249;SDS011;69561;37.974;23.708;2023-08-07T09:40:59;0.73;;;0.52;;
80249;SDS011;69561;37.974;23.708;2023-08-07T09:43:26;2.55;;;0.55;;
80249;SDS011;69561;37.974;23.708;2023-08-07T09:45:59;2.67;;;0.70;;
80249;SDS011;69561;37.974;23.708;2023-08-07T09:48:39;4.43;;;0.70;;
80249;SDS011;69561;37.974;23.708;2023-08-07T09:51:06;1.90;;;0.80;;
80249;SDS011;69561;37.974;23.708;2023-08-07T09:53:32;4.82;;;1.38;;
80249;SDS011;69561;37.974;23.708;2023-08-07T09:55:58;2.92;;;1.30;;
80249;SDS011;69561;37.974;23.708;2023-08-07T09:58:24;2.45;;;1.70;;
80249;SDS011;69561;37.974;23.708;2023-08-07T10:00:50;4.28;;;1.90;;
80249;SDS011;69561;37.974;23.708;2023-08-07T10:03:24;5.97;;;1.55;;
80249;SDS011;69561;37.974;23.708;2023-08-07T10:05:50;5.82;;;1.90;;
80249;SDS011;69561;37.974;23.708;2023-08-07T10:08:16;2.78;;;1.90;;
80249;SDS011;69561;37.974;23.708;2023-08-07T10:10:43;4.90;;;2.00;;
80249;SDS011;69561;37.974;23.708;2023-08-07T10:13:12;3.58;;;1.88;;
80249;SDS011;69561;37.974;23.708;2023-08-07T10:15:39;3.83;;;1.83;;
80249;SDS011;69561;37.974;23.708;2023-08-07T10:18:07;8.80;;;2.40;;
80249;SDS011;69561;37.974;23.708;2023-08-07T10:20:33;5.38;;;1.92;;
80249;SDS011;69561;37.974;23.708;2023-08-07T10:23:09;6.47;;;1.50;;
80249;SDS011;69561;37.974;23.708;2023-08-07T10:25:37;2.40;;;1.60;;
80249;SDS011;69561;37.974;23.708;2023-08-07T10:28:08;3.35;;;1.30;;
80249;SDS011;69561;37.974;23.708;2023-08-07T10:30:34;3.22;;;1.40;;
80249;SDS011;69561;37.974;23.708;2023-08-07T10:33:02;5.82;;;1.30;;
80249;SDS011;69561;37.974;23.708;2023-08-07T10:35:32;1.65;;;1.02;;
80249;SDS011;69561;37.974;23.708;2023-08-07T10:38:08;3.35;;;1.00;;
80249;SDS011;69561;37.974;23.708;2023-08-07T10:43:40;1.35;;;0.65;;
80249;SDS011;69561;37.974;23.708;2023-08-07T10:46:16;1.50;;;0.60;;
80249;SDS011;69561;37.974;23.708;2023-08-07T10:48:54;2.30;;;0.75;;
80249;SDS011;69561;37.974;23.708;2023-08-07T10:51:23;2.10;;;0.60;;
80249;SDS011;69561;37.974;23.708;2023-08-07T10:53:54;2.03;;;0.60;;
80249;SDS011;69561;37.974;23.708;2023-08-07T10:59:08;0.50;;;0.40;;
80249;SDS011;69561;37.974;23.708;2023-08-07T11:01:40;0.75;;;0.40;;
80249;SDS011;69561;37.974;23.708;2023-08-07T11:04:07;0.75;;;0.65;;
80249;SDS011;69561;37.974;23.708;2023-08-07T11:06:35;2.25;;;1.10;;
80249;SDS011;69561;37.974;23.708;2023-08-07T11:09:03;1.20;;;1.10;;
80249;SDS011;69561;37.974;23.708;2023-08-07T11:11:35;1.65;;;1.52;;
80249;SDS011;69561;37.974;23.708;2023-08-07T11:14:12;3.10;;;1.50;;
80249;SDS011;69561;37.974;23.708;2023-08-07T11:16:39;1.80;;;1.40;;
80249;SDS011;69561;37.974;23.708;2023-08-07T11:19:05;3.20;;;1.10;;
80249;SDS011;69561;37.974;23.708;2023-08-07T11:21:31;1.85;;;1.42;;
80249;SDS011;69561;37.974;23.708;2023-08-07T11:23:57;1.52;;;1.17;;
80249;SDS011;69561;37.974;23.708;2023-08-07T11:26:23;1.42;;;1.20;;
80249;SDS011;69561;37.974;23.708;2023-08-07T11:28:51;1.10;;;0.90;;
80249;SDS011;69561;37.974;23.708;2023-08-07T11:31:20;1.05;;;0.98;;
80249;SDS011;69561;37.974;23.708;2023-08-07T11:33:47;2.45;;;0.85;;
80249;SDS011;69561;37.974;23.708;2023-08-07T11:36:16;2.65;;;0.80;;
80249;SDS011;69561;37.974;23.708;2023-08-07T11:38:42;0.90;;;0.70;;
80249;SDS011;69561;37.974;23.708;2023-08-07T11:41:10;0.60;;;0.50;;
80249;SDS011;69561;37.974;23.708;2023-08-07T11:43:37;1.75;;;1.60;;
80249;SDS011;69561;37.974;23.708;2023-08-07T11:46:04;3.08;;;2.20;;
80249;SDS011;69561;37.974;23.708;2023-08-07T11:48:32;2.00;;;1.90;;
80249;SDS011;69561;37.974;23.708;2023-08-07T11:50:59;2.15;;;2.00;;
80249;SDS011;69561;37.974;23.708;2023-08-07T11:53:32;2.20;;;2.00;;
80249;SDS011;69561;37.974;23.708;2023-08-07T11:56:26;2.13;;;1.90;;
80249;SDS011;69561;37.974;23.708;2023-08-07T12:02:08;1.48;;;1.38;;
80249;SDS011;69561;37.974;23.708;2023-08-07T12:04:42;2.00;;;1.10;;
80249;SDS011;69561;37.974;23.708;2023-08-07T12:07:09;1.42;;;1.10;;
80249;SDS011;69561;37.974;23.708;2023-08-07T12:09:36;0.80;;;0.80;;
80249;SDS011;69561;37.974;23.708;2023-08-07T12:12:02;3.15;;;0.95;;
80249;SDS011;69561;37.974;23.708;2023-08-07T12:14:29;1.23;;;0.82;;
80249;SDS011;69561;37.974;23.708;2023-08-07T12:16:55;0.93;;;0.77;;
80249;SDS011;69561;37.974;23.708;2023-08-07T12:19:21;0.98;;;0.73;;
80249;SDS011;69561;37.974;23.708;2023-08-07T12:21:46;1.05;;;0.70;;
80249;SDS011;69561;37.974;23.708;2023-08-07T12:24:13;0.70;;;0.50;;
80249;SDS011;69561;37.974;23.708;2023-08-07T12:26:38;1.73;;;0.57;;
80249;SDS011;69561;37.974;23.708;2023-08-07T12:29:04;2.53;;;0.57;;
80249;SDS011;69561;37.974;23.708;2023-08-07T12:31:30;0.38;;;0.30;;
80249;SDS011;69561;37.974;23.708;2023-08-07T12:33:56;1.02;;;0.60;;
80249;SDS011;69561;37.974;23.708;2023-08-07T12:36:22;2.03;;;0.55;;
80249;SDS011;69561;37.974;23.708;2023-08-07T12:38:47;0.68;;;0.47;;
80249;SDS011;69561;37.974;23.708;2023-08-07T12:41:13;2.17;;;0.40;;
80249;SDS011;69561;37.974;23.708;2023-08-07T12:43:39;0.45;;;0.35;;
80249;SDS011;69561;37.974;23.708;2023-08-07T12:46:05;0.50;;;0.40;;
80249;SDS011;69561;37.974;23.708;2023-08-07T12:48:31;0.30;;;0.30;;
80249;SDS011;69561;37.974;23.708;2023-08-07T12:50:56;0.40;;;0.40;;
80249;SDS011;69561;37.974;23.708;2023-08-07T12:53:22;0.40;;;0.30;;
80249;SDS011;69561;37.974;23.708;2023-08-07T12:55:48;0.28;;;0.28;;
80249;SDS011;69561;37.974;23.708;2023-08-07T12:58:13;0.32;;;0.32;;
80249;SDS011;69561;37.974;23.708;2023-08-07T13:00:40;0.45;;;0.20;;
80249;SDS011;69561;37.974;23.708;2023-08-07T13:03:06;0.43;;;0.30;;
80249;SDS011;69561;37.974;23.708;2023-08-07T13:05:32;1.65;;;0.30;;
80249;SDS011;69561;37.974;23.708;2023-08-07T13:07:57;0.73;;;0.20;;
80249;SDS011;69561;37.974;23.708;2023-08-07T13:10:23;1.20;;;0.20;;
80249;SDS011;69561;37.974;23.708;2023-08-07T13:12:49;0.20;;;0.20;;
80249;SDS011;69561;37.974;23.708;2023-08-07T13:15:16;0.60;;;0.40;;
80249;SDS011;69561;37.974;23.708;2023-08-07T13:17:43;0.32;;;0.20;;
80249;SDS011;69561;37.974;23.708;2023-08-07T13:20:10;0.52;;;0.30;;
80249;SDS011;69561;37.974;23.708;2023-08-07T13:22:38;0.40;;;0.30;;
80249;SDS011;69561;37.974;23.708;2023-08-07T13:25:05;0.20;;;0.20;;
80249;SDS011;69561;37.974;23.708;2023-08-07T13:27:32;0.93;;;0.40;;
80249;SDS011;69561;37.974;23.708;2023-08-07T13:29:58;0.35;;;0.30;;
80249;SDS011;69561;37.974;23.708;2023-08-07T13:32:27;0.52;;;0.30;;
80249;SDS011;69561;37.974;23.708;2023-08-07T13:34:53;0.30;;;0.30;;
80249;SDS011;69561;37.974;23.708;2023-08-07T13:37:19;0.30;;;0.30;;
80249;SDS011;69561;37.974;23.708;2023-08-07T13:39:45;0.50;;;0.30;;
80249;SDS011;69561;37.974;23.708;2023-08-07T13:42:13;0.28;;;0.28;;
80249;SDS011;69561;37.974;23.708;2023-08-07T13:44:39;0.85;;;0.38;;
80249;SDS011;69561;37.974;23.708;2023-08-07T13:47:05;0.20;;;0.20;;
80249;SDS011;69561;37.974;23.708;2023-08-07T13:49:31;0.28;;;0.20;;
80249;SDS011;69561;37.974;23.708;2023-08-07T13:51:57;0.30;;;0.20;;
80249;SDS011;69561;37.974;23.708;2023-08-07T13:54:23;2.05;;;0.30;;
80249;SDS011;69561;37.974;23.708;2023-08-07T13:56:49;0.30;;;0.30;;
80249;SDS011;69561;37.974;23.708;2023-08-07T13:59:15;0.65;;;0.30;;
80249;SDS011;69561;37.974;23.708;2023-08-07T14:01:41;0.85;;;0.22;;
80249;SDS011;69561;37.974;23.708;2023-08-07T14:04:07;0.60;;;0.20;;
80249;SDS011;69561;37.974;23.708;2023-08-07T14:06:33;0.80;;;0.28;;
80249;SDS011;69561;37.974;23.708;2023-08-07T14:08:58;0.75;;;0.30;;
80249;SDS011;69561;37.974;23.708;2023-08-07T14:11:24;2.53;;;0.28;;
80249;SDS011;69561;37.974;23.708;2023-08-07T14:13:55;0.45;;;0.20;;
80249;SDS011;69561;37.974;23.708;2023-08-07T14:16:21;0.52;;;0.20;;
80249;SDS011;69561;37.974;23.708;2023-08-07T14:18:47;0.30;;;0.30;;
80249;SDS011;69561;37.974;23.708;2023-08-07T14:21:13;1.05;;;0.30;;
80249;SDS011;69561;37.974;23.708;2023-08-07T14:23:39;0.52;;;0.30;;
80249;SDS011;69561;37.974;23.708;2023-08-07T14:26:04;0.45;;;0.30;;
80249;SDS011;69561;37.974;23.708;2023-08-07T14:28:30;0.30;;;0.30;;
80249;SDS011;69561;37.974;23.708;2023-08-07T14:30:59;0.85;;;0.20;;
80249;SDS011;69561;37.974;23.708;2023-08-07T14:33:25;0.20;;;0.20;;
80249;SDS011;69561;37.974;23.708;2023-08-07T14:35:52;0.20;;;0.20;;
80249;SDS011;69561;37.974;23.708;2023-08-07T14:38:18;0.68;;;0.13;;
80249;SDS011;69561;37.974;23.708;2023-08-07T14:40:43;0.43;;;0.20;;
80249;SDS011;69561;37.974;23.708;2023-08-07T14:43:09;0.85;;;0.40;;
80249;SDS011;69561;37.974;23.708;2023-08-07T14:45:36;0.50;;;0.30;;
80249;SDS011;69561;37.974;23.708;2023-08-07T14:48:02;0.25;;;0.20;;